sensor_id;sensor_type;location;lat;lon;timestamp;temperature;humidity
27306;DHT22;14792;50.886;6.468;2024-03-17T00:01:16;5.80;99.90
27306;DHT22;14792;50.886;6.468;2024-03-17T00:04:18;5.80;99.90
27306;DHT22;14792;50.886;6.468;2024-03-17T00:07:19;5.70;99.90
27306;DHT22;14792;50.886;6.468;2024-03-17T00:10:21;5.70;99.90
27306;DHT22;14792;50.886;6.468;2024-03-17T00:13:23;5.70;99.90
27306;DHT22;14792;50.886;6.468;2024-03-17T00:16:24;5.70;99.90
27306;DHT22;14792;50.886;6.468;2024-03-17T00:19:26;5.80;99.90
27306;DHT22;14792;50.886;6.468;2024-03-17T00:22:27;5.80;99.90
27306;DHT22;14792;50.886;6.468;2024-03-17T00:25:29;5.80;99.90
27306;DHT22;14792;50.886;6.468;2024-03-17T00:28:30;5.80;99.90
27306;DHT22;14792;50.886;6.468;2024-03-17T00:31:32;5.90;99.90
27306;DHT22;14792;50.886;6.468;2024-03-17T00:34:33;5.90;99.90
27306;DHT22;14792;50.886;6.468;2024-03-17T00:37:38;5.90;99.90
27306;DHT22;14792;50.886;6.468;2024-03-17T00:40:37;5.90;99.90
27306;DHT22;14792;50.886;6.468;2024-03-17T00:43:38;5.90;99.90
27306;DHT22;14792;50.886;6.468;2024-03-17T00:46:40;5.90;99.90
27306;DHT22;14792;50.886;6.468;2024-03-17T00:49:41;5.90;99.90
27306;DHT22;14792;50.886;6.468;2024-03-17T00:52:43;5.80;99.90
27306;DHT22;14792;50.886;6.468;2024-03-17T00:55:50;5.90;99.90
27306;DHT22;14792;50.886;6.468;2024-03-17T00:58:46;5.80;99.90
27306;DHT22;14792;50.886;6.468;2024-03-17T01:01:48;5.70;99.90
27306;DHT22;14792;50.886;6.468;2024-03-17T01:04:49;5.70;99.90
27306;DHT22;14792;50.886;6.468;2024-03-17T01:07:51;5.70;99.90
27306;DHT22;14792;50.886;6.468;2024-03-17T01:10:53;5.70;99.90
27306;DHT22;14792;50.886;6.468;2024-03-17T01:13:54;5.70;99.90
27306;DHT22;14792;50.886;6.468;2024-03-17T01:16:56;5.70;99.90
27306;DHT22;14792;50.886;6.468;2024-03-17T01:19:57;5.70;99.90
27306;DHT22;14792;50.886;6.468;2024-03-17T01:22:59;5.70;99.90
27306;DHT22;14792;50.886;6.468;2024-03-17T01:26:00;5.60;99.90
27306;DHT22;14792;50.886;6.468;2024-03-17T01:29:02;5.60;99.90
27306;DHT22;14792;50.886;6.468;2024-03-17T01:32:04;5.50;99.90
27306;DHT22;14792;50.886;6.468;2024-03-17T01:35:05;5.50;99.90
27306;DHT22;14792;50.886;6.468;2024-03-17T01:38:09;5.50;99.90
27306;DHT22;14792;50.886;6.468;2024-03-17T01:41:14;5.50;99.90
27306;DHT22;14792;50.886;6.468;2024-03-17T01:44:25;5.40;99.90
27306;DHT22;14792;50.886;6.468;2024-03-17T01:47:23;5.50;99.90
27306;DHT22;14792;50.886;6.468;2024-03-17T01:50:36;5.50;99.90
27306;DHT22;14792;50.886;6.468;2024-03-17T01:53:35;5.40;99.90
27306;DHT22;14792;50.886;6.468;2024-03-17T01:56:36;5.40;99.90
27306;DHT22;14792;50.886;6.468;2024-03-17T01:59:38;5.40;99.90
27306;DHT22;14792;50.886;6.468;2024-03-17T02:02:40;5.30;99.90
27306;DHT22;14792;50.886;6.468;2024-03-17T02:05:41;5.30;99.90
27306;DHT22;14792;50.886;6.468;2024-03-17T02:11:50;5.20;99.90
27306;DHT22;14792;50.886;6.468;2024-03-17T02:14:52;5.10;99.90
27306;DHT22;14792;50.886;6.468;2024-03-17T02:17:53;5.10;99.90
27306;DHT22;14792;50.886;6.468;2024-03-17T02:20:55;5.10;99.90
27306;DHT22;14792;50.886;6.468;2024-03-17T02:23:56;5.00;99.90
27306;DHT22;14792;50.886;6.468;2024-03-17T02:26:58;5.00;99.90
27306;DHT22;14792;50.886;6.468;2024-03-17T02:30:00;5.00;99.90
27306;DHT22;14792;50.886;6.468;2024-03-17T02:33:01;5.00;99.90
27306;DHT22;14792;50.886;6.468;2024-03-17T02:36:03;5.00;99.90
27306;DHT22;14792;50.886;6.468;2024-03-17T02:39:10;4.90;99.90
27306;DHT22;14792;50.886;6.468;2024-03-17T02:42:30;4.90;99.90
27306;DHT22;14792;50.886;6.468;2024-03-17T02:45:31;4.90;99.90
27306;DHT22;14792;50.886;6.468;2024-03-17T02:48:33;4.90;99.90
27306;DHT22;14792;50.886;6.468;2024-03-17T02:51:34;4.90;99.90
27306;DHT22;14792;50.886;6.468;2024-03-17T02:54:36;4.90;99.90
27306;DHT22;14792;50.886;6.468;2024-03-17T02:57:38;5.00;99.90
27306;DHT22;14792;50.886;6.468;2024-03-17T03:00:39;4.90;99.90
27306;DHT22;14792;50.886;6.468;2024-03-17T03:03:41;4.90;99.90
27306;DHT22;14792;50.886;6.468;2024-03-17T03:06:43;4.90;99.90
27306;DHT22;14792;50.886;6.468;2024-03-17T03:09:44;4.90;99.90
27306;DHT22;14792;50.886;6.468;2024-03-17T03:12:46;4.80;99.90
27306;DHT22;14792;50.886;6.468;2024-03-17T03:15:48;4.90;99.90
27306;DHT22;14792;50.886;6.468;2024-03-17T03:18:50;4.90;99.90
27306;DHT22;14792;50.886;6.468;2024-03-17T03:21:51;4.90;99.90
27306;DHT22;14792;50.886;6.468;2024-03-17T03:24:52;5.00;99.90
27306;DHT22;14792;50.886;6.468;2024-03-17T03:27:54;5.00;99.90
27306;DHT22;14792;50.886;6.468;2024-03-17T03:30:56;5.10;99.90
27306;DHT22;14792;50.886;6.468;2024-03-17T03:33:57;5.10;99.90
27306;DHT22;14792;50.886;6.468;2024-03-17T03:36:59;5.10;99.90
27306;DHT22;14792;50.886;6.468;2024-03-17T03:40:00;5.20;99.90
27306;DHT22;14792;50.886;6.468;2024-03-17T03:43:02;5.20;99.90
27306;DHT22;14792;50.886;6.468;2024-03-17T03:46:04;5.20;99.90
27306;DHT22;14792;50.886;6.468;2024-03-17T03:49:05;5.30;99.90
27306;DHT22;14792;50.886;6.468;2024-03-17T03:52:07;5.30;99.90
27306;DHT22;14792;50.886;6.468;2024-03-17T03:55:09;5.30;99.90
27306;DHT22;14792;50.886;6.468;2024-03-17T03:58:10;5.40;99.90
27306;DHT22;14792;50.886;6.468;2024-03-17T04:01:11;5.40;99.90
27306;DHT22;14792;50.886;6.468;2024-03-17T04:04:13;5.50;99.90
27306;DHT22;14792;50.886;6.468;2024-03-17T04:07:14;5.50;99.90
27306;DHT22;14792;50.886;6.468;2024-03-17T04:10:16;5.60;99.90
27306;DHT22;14792;50.886;6.468;2024-03-17T04:13:18;5.60;99.90
27306;DHT22;14792;50.886;6.468;2024-03-17T04:16:19;5.60;99.90
27306;DHT22;14792;50.886;6.468;2024-03-17T04:19:21;5.60;99.90
27306;DHT22;14792;50.886;6.468;2024-03-17T04:22:22;5.60;99.90
27306;DHT22;14792;50.886;6.468;2024-03-17T04:25:24;5.60;99.90
27306;DHT22;14792;50.886;6.468;2024-03-17T04:28:26;5.60;99.90
27306;DHT22;14792;50.886;6.468;2024-03-17T04:31:27;5.60;99.90
27306;DHT22;14792;50.886;6.468;2024-03-17T04:34:29;5.60;99.90
27306;DHT22;14792;50.886;6.468;2024-03-17T04:37:30;5.60;99.90
27306;DHT22;14792;50.886;6.468;2024-03-17T04:40:35;5.60;99.90
27306;DHT22;14792;50.886;6.468;2024-03-17T04:43:36;5.60;99.90
27306;DHT22;14792;50.886;6.468;2024-03-17T04:46:38;5.50;99.90
27306;DHT22;14792;50.886;6.468;2024-03-17T04:49:40;5.50;99.90
27306;DHT22;14792;50.886;6.468;2024-03-17T04:52:41;5.50;99.90
27306;DHT22;14792;50.886;6.468;2024-03-17T04:55:43;5.40;99.90
27306;DHT22;14792;50.886;6.468;2024-03-17T04:58:44;5.30;99.90
27306;DHT22;14792;50.886;6.468;2024-03-17T05:01:46;5.30;99.90
27306;DHT22;14792;50.886;6.468;2024-03-17T05:04:47;5.30;99.90
27306;DHT22;14792;50.886;6.468;2024-03-17T05:07:49;5.20;99.90
27306;DHT22;14792;50.886;6.468;2024-03-17T05:10:55;5.10;99.90
27306;DHT22;14792;50.886;6.468;2024-03-17T05:13:52;5.10;99.90
27306;DHT22;14792;50.886;6.468;2024-03-17T05:16:54;5.00;99.90
27306;DHT22;14792;50.886;6.468;2024-03-17T05:19:55;5.00;99.90
27306;DHT22;14792;50.886;6.468;2024-03-17T05:22:57;4.90;99.90
27306;DHT22;14792;50.886;6.468;2024-03-17T05:25:59;4.90;99.90
27306;DHT22;14792;50.886;6.468;2024-03-17T05:29:00;4.80;99.90
27306;DHT22;14792;50.886;6.468;2024-03-17T05:32:02;4.80;99.90
27306;DHT22;14792;50.886;6.468;2024-03-17T05:35:03;4.70;99.90
27306;DHT22;14792;50.886;6.468;2024-03-17T05:38:05;4.70;99.90
27306;DHT22;14792;50.886;6.468;2024-03-17T05:41:07;4.70;99.90
27306;DHT22;14792;50.886;6.468;2024-03-17T05:44:08;4.70;99.90
27306;DHT22;14792;50.886;6.468;2024-03-17T05:47:10;4.70;99.90
27306;DHT22;14792;50.886;6.468;2024-03-17T05:50:11;4.70;99.90
27306;DHT22;14792;50.886;6.468;2024-03-17T05:53:13;4.70;99.90
27306;DHT22;14792;50.886;6.468;2024-03-17T05:56:14;4.70;99.90
27306;DHT22;14792;50.886;6.468;2024-03-17T05:59:16;4.60;99.90
27306;DHT22;14792;50.886;6.468;2024-03-17T06:02:18;4.60;99.90
27306;DHT22;14792;50.886;6.468;2024-03-17T06:05:19;4.70;99.90
27306;DHT22;14792;50.886;6.468;2024-03-17T06:08:21;4.70;99.90
27306;DHT22;14792;50.886;6.468;2024-03-17T06:11:22;4.60;99.90
27306;DHT22;14792;50.886;6.468;2024-03-17T06:14:24;4.70;99.90
27306;DHT22;14792;50.886;6.468;2024-03-17T06:17:25;4.70;99.90
27306;DHT22;14792;50.886;6.468;2024-03-17T06:20:27;4.80;99.90
27306;DHT22;14792;50.886;6.468;2024-03-17T06:23:29;4.90;99.90
27306;DHT22;14792;50.886;6.468;2024-03-17T06:26:30;5.00;99.90
27306;DHT22;14792;50.886;6.468;2024-03-17T06:29:35;5.10;99.90
27306;DHT22;14792;50.886;6.468;2024-03-17T06:32:36;5.10;99.90
27306;DHT22;14792;50.886;6.468;2024-03-17T06:35:38;5.20;99.90
27306;DHT22;14792;50.886;6.468;2024-03-17T06:38:39;5.30;99.90
27306;DHT22;14792;50.886;6.468;2024-03-17T06:41:42;5.40;99.90
27306;DHT22;14792;50.886;6.468;2024-03-17T06:44:43;5.40;99.90
27306;DHT22;14792;50.886;6.468;2024-03-17T06:47:44;5.50;99.90
27306;DHT22;14792;50.886;6.468;2024-03-17T06:50:46;5.60;99.90
27306;DHT22;14792;50.886;6.468;2024-03-17T06:53:47;5.60;99.90
27306;DHT22;14792;50.886;6.468;2024-03-17T06:56:49;5.70;99.90
27306;DHT22;14792;50.886;6.468;2024-03-17T06:59:51;5.80;99.90
27306;DHT22;14792;50.886;6.468;2024-03-17T07:02:52;6.00;99.90
27306;DHT22;14792;50.886;6.468;2024-03-17T07:05:54;6.10;99.90
27306;DHT22;14792;50.886;6.468;2024-03-17T07:08:55;6.20;99.90
27306;DHT22;14792;50.886;6.468;2024-03-17T07:11:57;6.30;99.90
27306;DHT22;14792;50.886;6.468;2024-03-17T07:14:58;6.50;99.90
27306;DHT22;14792;50.886;6.468;2024-03-17T07:18:00;6.60;99.90
27306;DHT22;14792;50.886;6.468;2024-03-17T07:21:02;6.70;99.90
27306;DHT22;14792;50.886;6.468;2024-03-17T07:24:03;6.90;99.90
27306;DHT22;14792;50.886;6.468;2024-03-17T07:27:05;7.00;99.90
27306;DHT22;14792;50.886;6.468;2024-03-17T07:30:07;7.10;99.90
27306;DHT22;14792;50.886;6.468;2024-03-17T07:33:08;7.10;99.90
27306;DHT22;14792;50.886;6.468;2024-03-17T07:36:10;7.10;99.90
27306;DHT22;14792;50.886;6.468;2024-03-17T07:39:11;7.10;99.90
27306;DHT22;14792;50.886;6.468;2024-03-17T07:42:13;7.10;99.90
27306;DHT22;14792;50.886;6.468;2024-03-17T07:45:15;7.10;99.90
27306;DHT22;14792;50.886;6.468;2024-03-17T07:48:16;7.20;99.90
27306;DHT22;14792;50.886;6.468;2024-03-17T07:51:18;7.40;99.90
27306;DHT22;14792;50.886;6.468;2024-03-17T07:54:19;7.60;99.90
27306;DHT22;14792;50.886;6.468;2024-03-17T07:57:21;7.90;99.90
27306;DHT22;14792;50.886;6.468;2024-03-17T08:00:22;8.10;99.90
27306;DHT22;14792;50.886;6.468;2024-03-17T08:03:24;8.30;99.90
27306;DHT22;14792;50.886;6.468;2024-03-17T08:06:26;8.20;99.90
27306;DHT22;14792;50.886;6.468;2024-03-17T08:09:28;8.10;99.90
27306;DHT22;14792;50.886;6.468;2024-03-17T08:12:29;8.10;99.90
27306;DHT22;14792;50.886;6.468;2024-03-17T08:15:30;8.10;99.90
27306;DHT22;14792;50.886;6.468;2024-03-17T08:18:35;8.30;99.90
27306;DHT22;14792;50.886;6.468;2024-03-17T08:21:37;8.60;99.90
27306;DHT22;14792;50.886;6.468;2024-03-17T08:24:38;8.90;99.90
27306;DHT22;14792;50.886;6.468;2024-03-17T08:27:40;9.00;99.90
27306;DHT22;14792;50.886;6.468;2024-03-17T08:30:41;8.90;99.90
27306;DHT22;14792;50.886;6.468;2024-03-17T08:33:43;8.90;99.90
27306;DHT22;14792;50.886;6.468;2024-03-17T08:36:44;8.90;99.90
27306;DHT22;14792;50.886;6.468;2024-03-17T08:39:46;9.00;99.90
27306;DHT22;14792;50.886;6.468;2024-03-17T08:42:48;9.20;99.90
27306;DHT22;14792;50.886;6.468;2024-03-17T08:46:05;9.30;99.90
27306;DHT22;14792;50.886;6.468;2024-03-17T08:49:06;9.40;99.90
27306;DHT22;14792;50.886;6.468;2024-03-17T08:52:07;9.50;99.90
27306;DHT22;14792;50.886;6.468;2024-03-17T08:55:09;9.50;99.90
27306;DHT22;14792;50.886;6.468;2024-03-17T08:58:10;9.40;99.90
27306;DHT22;14792;50.886;6.468;2024-03-17T09:01:13;9.30;99.90
27306;DHT22;14792;50.886;6.468;2024-03-17T09:04:14;9.20;99.90
27306;DHT22;14792;50.886;6.468;2024-03-17T09:07:15;9.10;99.90
27306;DHT22;14792;50.886;6.468;2024-03-17T09:10:17;9.20;99.90
27306;DHT22;14792;50.886;6.468;2024-03-17T09:13:25;9.30;99.90
27306;DHT22;14792;50.886;6.468;2024-03-17T09:16:26;9.50;99.90
27306;DHT22;14792;50.886;6.468;2024-03-17T09:19:27;9.70;99.90
27306;DHT22;14792;50.886;6.468;2024-03-17T09:22:29;9.90;99.90
27306;DHT22;14792;50.886;6.468;2024-03-17T09:25:30;10.10;99.90
27306;DHT22;14792;50.886;6.468;2024-03-17T09:28:32;10.00;99.90
27306;DHT22;14792;50.886;6.468;2024-03-17T09:31:34;10.00;99.90
27306;DHT22;14792;50.886;6.468;2024-03-17T09:34:35;10.10;99.90
27306;DHT22;14792;50.886;6.468;2024-03-17T09:37:37;10.10;99.90
27306;DHT22;14792;50.886;6.468;2024-03-17T09:40:45;10.10;99.90
27306;DHT22;14792;50.886;6.468;2024-03-17T09:43:40;10.30;99.90
27306;DHT22;14792;50.886;6.468;2024-03-17T09:46:41;10.40;99.90
27306;DHT22;14792;50.886;6.468;2024-03-17T09:49:43;10.50;99.90
27306;DHT22;14792;50.886;6.468;2024-03-17T09:52:45;10.50;99.90
27306;DHT22;14792;50.886;6.468;2024-03-17T09:55:46;10.60;99.90
27306;DHT22;14792;50.886;6.468;2024-03-17T09:58:49;10.60;99.90
27306;DHT22;14792;50.886;6.468;2024-03-17T10:01:50;10.80;99.90
27306;DHT22;14792;50.886;6.468;2024-03-17T10:04:51;11.10;99.90
27306;DHT22;14792;50.886;6.468;2024-03-17T10:07:53;11.20;99.90
27306;DHT22;14792;50.886;6.468;2024-03-17T10:10:54;11.30;99.90
27306;DHT22;14792;50.886;6.468;2024-03-17T10:14:08;11.50;99.90
27306;DHT22;14792;50.886;6.468;2024-03-17T10:17:00;11.60;99.90
27306;DHT22;14792;50.886;6.468;2024-03-17T10:20:11;11.60;99.90
27306;DHT22;14792;50.886;6.468;2024-03-17T10:23:12;11.70;99.90
27306;DHT22;14792;50.886;6.468;2024-03-17T10:26:14;11.90;99.90
27306;DHT22;14792;50.886;6.468;2024-03-17T10:29:25;12.00;99.90
27306;DHT22;14792;50.886;6.468;2024-03-17T10:32:26;12.10;99.90
27306;DHT22;14792;50.886;6.468;2024-03-17T10:35:29;12.10;99.90
27306;DHT22;14792;50.886;6.468;2024-03-17T10:38:29;12.30;99.90
27306;DHT22;14792;50.886;6.468;2024-03-17T10:41:31;12.50;99.90
27306;DHT22;14792;50.886;6.468;2024-03-17T10:44:34;12.70;99.90
27306;DHT22;14792;50.886;6.468;2024-03-17T10:47:34;12.80;99.90
27306;DHT22;14792;50.886;6.468;2024-03-17T10:50:36;12.90;99.90
27306;DHT22;14792;50.886;6.468;2024-03-17T10:53:37;13.10;99.90
27306;DHT22;14792;50.886;6.468;2024-03-17T10:56:39;13.30;99.90
27306;DHT22;14792;50.886;6.468;2024-03-17T10:59:41;13.40;99.90
27306;DHT22;14792;50.886;6.468;2024-03-17T11:02:42;13.50;99.90
27306;DHT22;14792;50.886;6.468;2024-03-17T11:05:43;13.30;99.90
27306;DHT22;14792;50.886;6.468;2024-03-17T11:08:45;13.30;99.90
27306;DHT22;14792;50.886;6.468;2024-03-17T11:11:47;13.40;99.90
27306;DHT22;14792;50.886;6.468;2024-03-17T11:14:48;13.40;99.90
27306;DHT22;14792;50.886;6.468;2024-03-17T11:17:53;13.40;99.90
27306;DHT22;14792;50.886;6.468;2024-03-17T11:21:00;13.40;99.90
27306;DHT22;14792;50.886;6.468;2024-03-17T11:23:59;13.30;99.90
27306;DHT22;14792;50.886;6.468;2024-03-17T11:27:11;13.40;99.90
27306;DHT22;14792;50.886;6.468;2024-03-17T11:30:42;13.40;99.90
27306;DHT22;14792;50.886;6.468;2024-03-17T11:36:36;13.30;99.90
27306;DHT22;14792;50.886;6.468;2024-03-17T11:39:52;13.40;99.90
27306;DHT22;14792;50.886;6.468;2024-03-17T11:43:02;13.40;99.90
27306;DHT22;14792;50.886;6.468;2024-03-17T11:46:03;13.30;99.90
27306;DHT22;14792;50.886;6.468;2024-03-17T11:49:05;13.20;99.90
27306;DHT22;14792;50.886;6.468;2024-03-17T11:52:10;13.30;99.90
27306;DHT22;14792;50.886;6.468;2024-03-17T11:55:17;13.30;99.90
27306;DHT22;14792;50.886;6.468;2024-03-17T11:58:18;13.40;99.90
27306;DHT22;14792;50.886;6.468;2024-03-17T12:01:20;13.50;99.90
27306;DHT22;14792;50.886;6.468;2024-03-17T12:04:24;13.50;99.90
27306;DHT22;14792;50.886;6.468;2024-03-17T12:07:26;13.60;99.90
27306;DHT22;14792;50.886;6.468;2024-03-17T12:10:27;13.50;99.90
27306;DHT22;14792;50.886;6.468;2024-03-17T12:13:35;13.50;99.90
27306;DHT22;14792;50.886;6.468;2024-03-17T12:16:37;13.60;99.90
27306;DHT22;14792;50.886;6.468;2024-03-17T12:19:38;13.70;99.90
27306;DHT22;14792;50.886;6.468;2024-03-17T12:22:40;13.70;99.90
27306;DHT22;14792;50.886;6.468;2024-03-17T12:25:42;13.70;99.90
27306;DHT22;14792;50.886;6.468;2024-03-17T12:28:45;13.80;99.90
27306;DHT22;14792;50.886;6.468;2024-03-17T12:31:45;13.90;99.90
27306;DHT22;14792;50.886;6.468;2024-03-17T12:34:48;14.00;99.90
27306;DHT22;14792;50.886;6.468;2024-03-17T12:37:48;14.00;99.90
27306;DHT22;14792;50.886;6.468;2024-03-17T12:40:50;14.00;99.90
27306;DHT22;14792;50.886;6.468;2024-03-17T12:43:51;13.90;99.90
27306;DHT22;14792;50.886;6.468;2024-03-17T12:46:58;13.90;99.90
27306;DHT22;14792;50.886;6.468;2024-03-17T12:50:00;13.90;99.90
27306;DHT22;14792;50.886;6.468;2024-03-17T12:53:01;13.90;99.90
27306;DHT22;14792;50.886;6.468;2024-03-17T12:56:03;13.90;99.90
27306;DHT22;14792;50.886;6.468;2024-03-17T12:59:22;13.90;99.90
27306;DHT22;14792;50.886;6.468;2024-03-17T13:02:42;13.90;99.90
27306;DHT22;14792;50.886;6.468;2024-03-17T13:05:43;13.80;99.90
27306;DHT22;14792;50.886;6.468;2024-03-17T13:08:45;13.80;99.90
27306;DHT22;14792;50.886;6.468;2024-03-17T13:11:46;13.80;99.90
27306;DHT22;14792;50.886;6.468;2024-03-17T13:14:48;13.80;99.90
27306;DHT22;14792;50.886;6.468;2024-03-17T13:17:50;13.80;99.90
27306;DHT22;14792;50.886;6.468;2024-03-17T13:20:51;13.80;99.90
27306;DHT22;14792;50.886;6.468;2024-03-17T13:23:53;13.70;99.90
27306;DHT22;14792;50.886;6.468;2024-03-17T13:26:54;13.80;99.90
27306;DHT22;14792;50.886;6.468;2024-03-17T13:29:56;13.80;99.90
27306;DHT22;14792;50.886;6.468;2024-03-17T13:32:58;13.80;99.90
27306;DHT22;14792;50.886;6.468;2024-03-17T13:35:59;13.80;99.90
27306;DHT22;14792;50.886;6.468;2024-03-17T13:39:01;13.90;99.90
27306;DHT22;14792;50.886;6.468;2024-03-17T13:42:02;13.90;99.90
27306;DHT22;14792;50.886;6.468;2024-03-17T13:45:04;14.10;99.90
27306;DHT22;14792;50.886;6.468;2024-03-17T13:48:06;14.20;99.90
27306;DHT22;14792;50.886;6.468;2024-03-17T13:51:07;14.40;99.90
27306;DHT22;14792;50.886;6.468;2024-03-17T13:54:09;14.50;99.90
27306;DHT22;14792;50.886;6.468;2024-03-17T13:57:10;14.60;99.90
27306;DHT22;14792;50.886;6.468;2024-03-17T14:00:12;14.70;99.90
27306;DHT22;14792;50.886;6.468;2024-03-17T14:03:14;14.90;99.90
27306;DHT22;14792;50.886;6.468;2024-03-17T14:06:15;14.90;99.90
27306;DHT22;14792;50.886;6.468;2024-03-17T14:09:17;15.20;99.90
27306;DHT22;14792;50.886;6.468;2024-03-17T14:12:21;15.30;99.90
27306;DHT22;14792;50.886;6.468;2024-03-17T14:15:23;15.60;99.90
27306;DHT22;14792;50.886;6.468;2024-03-17T14:18:24;16.10;99.90
27306;DHT22;14792;50.886;6.468;2024-03-17T14:21:26;16.00;99.90
27306;DHT22;14792;50.886;6.468;2024-03-17T14:24:28;15.90;99.90
27306;DHT22;14792;50.886;6.468;2024-03-17T14:27:29;15.60;99.90
27306;DHT22;14792;50.886;6.468;2024-03-17T14:30:31;15.60;99.90
27306;DHT22;14792;50.886;6.468;2024-03-17T14:33:32;15.80;99.90
27306;DHT22;14792;50.886;6.468;2024-03-17T14:36:34;15.70;99.90
27306;DHT22;14792;50.886;6.468;2024-03-17T14:39:35;15.80;99.90
27306;DHT22;14792;50.886;6.468;2024-03-17T14:42:37;15.90;99.90
27306;DHT22;14792;50.886;6.468;2024-03-17T14:45:39;15.70;99.90
27306;DHT22;14792;50.886;6.468;2024-03-17T14:48:40;15.50;99.90
27306;DHT22;14792;50.886;6.468;2024-03-17T14:51:42;15.40;99.90
27306;DHT22;14792;50.886;6.468;2024-03-17T14:54:43;15.40;99.90
27306;DHT22;14792;50.886;6.468;2024-03-17T14:57:45;15.20;99.90
27306;DHT22;14792;50.886;6.468;2024-03-17T15:00:47;15.20;99.90
27306;DHT22;14792;50.886;6.468;2024-03-17T15:03:48;15.30;99.90
27306;DHT22;14792;50.886;6.468;2024-03-17T15:06:50;15.20;99.90
27306;DHT22;14792;50.886;6.468;2024-03-17T15:09:51;15.20;99.90
27306;DHT22;14792;50.886;6.468;2024-03-17T15:12:53;15.30;99.90
27306;DHT22;14792;50.886;6.468;2024-03-17T15:15:55;15.20;99.90
27306;DHT22;14792;50.886;6.468;2024-03-17T15:18:56;15.20;99.90
27306;DHT22;14792;50.886;6.468;2024-03-17T15:21:58;15.20;99.90
27306;DHT22;14792;50.886;6.468;2024-03-17T15:24:59;15.30;99.90
27306;DHT22;14792;50.886;6.468;2024-03-17T15:28:01;15.40;99.90
27306;DHT22;14792;50.886;6.468;2024-03-17T15:31:06;15.40;99.90
27306;DHT22;14792;50.886;6.468;2024-03-17T15:34:07;15.70;99.90
27306;DHT22;14792;50.886;6.468;2024-03-17T15:37:09;15.90;99.90
27306;DHT22;14792;50.886;6.468;2024-03-17T15:40:10;15.80;99.90
27306;DHT22;14792;50.886;6.468;2024-03-17T15:43:18;15.50;99.90
27306;DHT22;14792;50.886;6.468;2024-03-17T15:46:20;15.30;99.90
27306;DHT22;14792;50.886;6.468;2024-03-17T15:49:21;15.30;99.90
27306;DHT22;14792;50.886;6.468;2024-03-17T15:52:23;15.10;99.90
27306;DHT22;14792;50.886;6.468;2024-03-17T15:55:24;15.00;99.90
27306;DHT22;14792;50.886;6.468;2024-03-17T15:58:26;14.90;99.90
27306;DHT22;14792;50.886;6.468;2024-03-17T16:01:27;14.80;99.90
27306;DHT22;14792;50.886;6.468;2024-03-17T16:04:29;14.70;99.90
27306;DHT22;14792;50.886;6.468;2024-03-17T16:07:31;14.60;99.90
27306;DHT22;14792;50.886;6.468;2024-03-17T16:10:32;14.40;99.90
27306;DHT22;14792;50.886;6.468;2024-03-17T16:13:34;14.50;99.90
27306;DHT22;14792;50.886;6.468;2024-03-17T16:16:35;14.40;99.90
27306;DHT22;14792;50.886;6.468;2024-03-17T16:19:37;14.40;99.90
27306;DHT22;14792;50.886;6.468;2024-03-17T16:22:38;14.30;99.90
27306;DHT22;14792;50.886;6.468;2024-03-17T16:25:40;14.30;99.90
27306;DHT22;14792;50.886;6.468;2024-03-17T16:28:42;14.20;99.90
27306;DHT22;14792;50.886;6.468;2024-03-17T16:31:43;14.10;99.90
27306;DHT22;14792;50.886;6.468;2024-03-17T16:34:45;14.10;99.90
27306;DHT22;14792;50.886;6.468;2024-03-17T16:37:47;14.00;99.90
27306;DHT22;14792;50.886;6.468;2024-03-17T16:40:48;14.00;99.90
27306;DHT22;14792;50.886;6.468;2024-03-17T16:44:05;14.00;99.90
27306;DHT22;14792;50.886;6.468;2024-03-17T16:47:28;13.90;99.90
27306;DHT22;14792;50.886;6.468;2024-03-17T16:50:31;13.80;99.90
27306;DHT22;14792;50.886;6.468;2024-03-17T16:53:33;13.80;99.90
27306;DHT22;14792;50.886;6.468;2024-03-17T16:56:34;13.70;99.90
27306;DHT22;14792;50.886;6.468;2024-03-17T16:59:36;13.70;99.90
27306;DHT22;14792;50.886;6.468;2024-03-17T17:02:38;13.70;99.90
27306;DHT22;14792;50.886;6.468;2024-03-17T17:05:39;13.60;99.90
27306;DHT22;14792;50.886;6.468;2024-03-17T17:08:41;13.60;99.90
27306;DHT22;14792;50.886;6.468;2024-03-17T17:11:42;13.50;99.90
27306;DHT22;14792;50.886;6.468;2024-03-17T17:14:44;13.40;99.90
27306;DHT22;14792;50.886;6.468;2024-03-17T17:17:46;13.40;99.90
27306;DHT22;14792;50.886;6.468;2024-03-17T17:20:50;13.30;99.90
27306;DHT22;14792;50.886;6.468;2024-03-17T17:23:51;13.20;99.90
27306;DHT22;14792;50.886;6.468;2024-03-17T17:26:53;13.10;99.90
27306;DHT22;14792;50.886;6.468;2024-03-17T17:29:54;13.00;99.90
27306;DHT22;14792;50.886;6.468;2024-03-17T17:32:56;12.90;99.90
27306;DHT22;14792;50.886;6.468;2024-03-17T17:35:58;12.80;99.90
27306;DHT22;14792;50.886;6.468;2024-03-17T17:38:59;12.80;99.90
27306;DHT22;14792;50.886;6.468;2024-03-17T17:42:01;12.70;99.90
27306;DHT22;14792;50.886;6.468;2024-03-17T17:45:02;12.70;99.90
27306;DHT22;14792;50.886;6.468;2024-03-17T17:48:04;12.70;99.90
27306;DHT22;14792;50.886;6.468;2024-03-17T17:51:06;12.80;99.90
27306;DHT22;14792;50.886;6.468;2024-03-17T17:54:07;13.00;99.90
27306;DHT22;14792;50.886;6.468;2024-03-17T17:57:09;13.00;99.90
27306;DHT22;14792;50.886;6.468;2024-03-17T18:00:10;13.00;99.90
27306;DHT22;14792;50.886;6.468;2024-03-17T18:03:12;13.00;99.90
27306;DHT22;14792;50.886;6.468;2024-03-17T18:06:14;13.00;99.90
27306;DHT22;14792;50.886;6.468;2024-03-17T18:09:15;12.90;99.90
27306;DHT22;14792;50.886;6.468;2024-03-17T18:12:17;12.80;99.90
27306;DHT22;14792;50.886;6.468;2024-03-17T18:15:18;12.70;99.90
27306;DHT22;14792;50.886;6.468;2024-03-17T18:18:20;12.60;99.90
27306;DHT22;14792;50.886;6.468;2024-03-17T18:21:21;12.60;99.90
27306;DHT22;14792;50.886;6.468;2024-03-17T18:24:23;12.60;99.90
27306;DHT22;14792;50.886;6.468;2024-03-17T18:27:25;12.60;99.90
27306;DHT22;14792;50.886;6.468;2024-03-17T18:30:26;12.60;99.90
27306;DHT22;14792;50.886;6.468;2024-03-17T18:33:28;12.50;99.90
27306;DHT22;14792;50.886;6.468;2024-03-17T18:36:29;12.50;99.90
27306;DHT22;14792;50.886;6.468;2024-03-17T18:39:31;12.40;99.90
27306;DHT22;14792;50.886;6.468;2024-03-17T18:42:33;12.20;99.90
27306;DHT22;14792;50.886;6.468;2024-03-17T18:45:34;12.10;99.90
27306;DHT22;14792;50.886;6.468;2024-03-17T18:48:36;12.10;99.90
27306;DHT22;14792;50.886;6.468;2024-03-17T18:51:37;12.00;99.90
27306;DHT22;14792;50.886;6.468;2024-03-17T18:54:39;12.00;99.90
27306;DHT22;14792;50.886;6.468;2024-03-17T18:57:44;11.90;99.90
27306;DHT22;14792;50.886;6.468;2024-03-17T19:00:51;11.90;99.90
27306;DHT22;14792;50.886;6.468;2024-03-17T19:03:47;11.90;99.90
27306;DHT22;14792;50.886;6.468;2024-03-17T19:06:48;11.90;99.90
27306;DHT22;14792;50.886;6.468;2024-03-17T19:09:50;11.80;99.90
27306;DHT22;14792;50.886;6.468;2024-03-17T19:12:51;11.80;99.90
27306;DHT22;14792;50.886;6.468;2024-03-17T19:19:03;11.70;99.90
27306;DHT22;14792;50.886;6.468;2024-03-17T19:22:05;11.70;99.90
27306;DHT22;14792;50.886;6.468;2024-03-17T19:25:06;11.70;99.90
27306;DHT22;14792;50.886;6.468;2024-03-17T19:28:08;11.70;99.90